Terminal Aerodrome Forecast
Issued by NWS

Home | Current Version | Previous Version | Text Only | Print | Product List | Glossary On
Versions: 1 2 3 4 5 6 7 8 9 10 11 12 13 14 15 16 17
000
FTAK31 PAJN 292300
TAFASI
TAF
PASI 292325Z 3000/3024 11007KT P6SM -SHRA SCT020 BKN035 OVC050
      TEMPO 3000/3004 20010G18KT 5SM SHRA BR BKN020
     FM300600 11010KT P6SM -SHRA BKN025 OVC040=

USA.gov is the U.S. government's official web portal to all federal, state and local government web resources and services.